sensor_id;sensor_type;location;lat;lon;timestamp;P1;durP1;ratioP1;P2;durP2;ratioP2
17038;SDS011;8636;55.750;13.202;2023-06-19T00:02:09;23.90;;;19.58;;
17038;SDS011;8636;55.750;13.202;2023-06-19T00:04:37;25.15;;;19.08;;
17038;SDS011;8636;55.750;13.202;2023-06-19T00:07:11;26.70;;;21.17;;
17038;SDS011;8636;55.750;13.202;2023-06-19T00:09:39;39.50;;;27.65;;
17038;SDS011;8636;55.750;13.202;2023-06-19T00:12:08;39.22;;;27.08;;
17038;SDS011;8636;55.750;13.202;2023-06-19T00:14:44;41.17;;;27.60;;
17038;SDS011;8636;55.750;13.202;2023-06-19T00:17:12;42.63;;;28.08;;
17038;SDS011;8636;55.750;13.202;2023-06-19T00:19:43;36.85;;;25.27;;
17038;SDS011;8636;55.750;13.202;2023-06-19T00:22:17;33.03;;;23.77;;
17038;SDS011;8636;55.750;13.202;2023-06-19T00:24:45;38.30;;;26.50;;
17038;SDS011;8636;55.750;13.202;2023-06-19T00:27:14;42.60;;;28.15;;
17038;SDS011;8636;55.750;13.202;2023-06-19T00:29:50;45.88;;;31.48;;
17038;SDS011;8636;55.750;13.202;2023-06-19T00:32:24;41.53;;;28.38;;
17038;SDS011;8636;55.750;13.202;2023-06-19T00:35:18;41.78;;;29.23;;
17038;SDS011;8636;55.750;13.202;2023-06-19T00:37:48;45.00;;;29.80;;
17038;SDS011;8636;55.750;13.202;2023-06-19T00:40:16;50.38;;;32.55;;
17038;SDS011;8636;55.750;13.202;2023-06-19T00:43:00;46.55;;;29.23;;
17038;SDS011;8636;55.750;13.202;2023-06-19T00:45:28;48.83;;;30.77;;
17038;SDS011;8636;55.750;13.202;2023-06-19T00:47:56;48.53;;;30.55;;
17038;SDS011;8636;55.750;13.202;2023-06-19T00:50:32;42.13;;;28.52;;
17038;SDS011;8636;55.750;13.202;2023-06-19T00:53:00;44.95;;;29.13;;
17038;SDS011;8636;55.750;13.202;2023-06-19T00:55:30;47.80;;;31.80;;
17038;SDS011;8636;55.750;13.202;2023-06-19T00:58:09;48.25;;;31.85;;
17038;SDS011;8636;55.750;13.202;2023-06-19T01:00:37;71.00;;;37.03;;
17038;SDS011;8636;55.750;13.202;2023-06-19T01:03:05;220.77;;;42.10;;
17038;SDS011;8636;55.750;13.202;2023-06-19T01:05:44;114.60;;;39.38;;
17038;SDS011;8636;55.750;13.202;2023-06-19T01:08:30;144.20;;;42.65;;
17038;SDS011;8636;55.750;13.202;2023-06-19T01:11:17;71.43;;;36.22;;
17038;SDS011;8636;55.750;13.202;2023-06-19T01:13:55;58.60;;;34.20;;
17038;SDS011;8636;55.750;13.202;2023-06-19T01:16:32;61.50;;;33.50;;
17038;SDS011;8636;55.750;13.202;2023-06-19T01:19:01;58.60;;;31.73;;
17038;SDS011;8636;55.750;13.202;2023-06-19T01:21:44;56.75;;;32.08;;
17038;SDS011;8636;55.750;13.202;2023-06-19T01:24:14;66.90;;;34.50;;
17038;SDS011;8636;55.750;13.202;2023-06-19T01:26:42;59.17;;;30.63;;
17038;SDS011;8636;55.750;13.202;2023-06-19T01:29:18;67.55;;;31.27;;
17038;SDS011;8636;55.750;13.202;2023-06-19T01:31:54;68.03;;;30.98;;
17038;SDS011;8636;55.750;13.202;2023-06-19T01:34:33;55.28;;;26.75;;
17038;SDS011;8636;55.750;13.202;2023-06-19T01:37:06;48.40;;;24.70;;
17038;SDS011;8636;55.750;13.202;2023-06-19T01:39:46;56.13;;;24.45;;
17038;SDS011;8636;55.750;13.202;2023-06-19T01:42:14;44.17;;;23.63;;
17038;SDS011;8636;55.750;13.202;2023-06-19T01:44:42;50.03;;;23.05;;
17038;SDS011;8636;55.750;13.202;2023-06-19T01:47:17;48.50;;;21.75;;
17038;SDS011;8636;55.750;13.202;2023-06-19T01:49:47;47.35;;;21.67;;
17038;SDS011;8636;55.750;13.202;2023-06-19T01:52:15;48.78;;;21.10;;
17038;SDS011;8636;55.750;13.202;2023-06-19T01:54:51;52.33;;;21.05;;
17038;SDS011;8636;55.750;13.202;2023-06-19T01:57:20;93.72;;;22.50;;
17038;SDS011;8636;55.750;13.202;2023-06-19T01:59:48;67.32;;;21.05;;
17038;SDS011;8636;55.750;13.202;2023-06-19T02:02:22;76.65;;;20.90;;
17038;SDS011;8636;55.750;13.202;2023-06-19T02:04:50;51.80;;;20.05;;
17038;SDS011;8636;55.750;13.202;2023-06-19T02:07:18;58.47;;;20.48;;
17038;SDS011;8636;55.750;13.202;2023-06-19T02:09:54;48.05;;;20.65;;
17038;SDS011;8636;55.750;13.202;2023-06-19T02:12:23;47.45;;;20.25;;
17038;SDS011;8636;55.750;13.202;2023-06-19T02:14:50;59.05;;;21.65;;
17038;SDS011;8636;55.750;13.202;2023-06-19T02:17:25;53.22;;;20.98;;
17038;SDS011;8636;55.750;13.202;2023-06-19T02:19:53;56.58;;;21.48;;
17038;SDS011;8636;55.750;13.202;2023-06-19T02:22:21;73.20;;;24.45;;
17038;SDS011;8636;55.750;13.202;2023-06-19T02:24:57;96.45;;;26.13;;
17038;SDS011;8636;55.750;13.202;2023-06-19T02:27:24;87.70;;;27.08;;
17038;SDS011;8636;55.750;13.202;2023-06-19T02:29:52;82.20;;;28.50;;
17038;SDS011;8636;55.750;13.202;2023-06-19T02:32:27;186.97;;;35.90;;
17038;SDS011;8636;55.750;13.202;2023-06-19T02:35:02;161.68;;;35.30;;
17038;SDS011;8636;55.750;13.202;2023-06-19T02:37:36;243.15;;;39.00;;
17038;SDS011;8636;55.750;13.202;2023-06-19T02:40:06;171.10;;;33.58;;
17038;SDS011;8636;55.750;13.202;2023-06-19T02:42:43;151.48;;;31.75;;
17038;SDS011;8636;55.750;13.202;2023-06-19T02:45:11;96.97;;;26.52;;
17038;SDS011;8636;55.750;13.202;2023-06-19T02:47:39;104.97;;;26.37;;
17038;SDS011;8636;55.750;13.202;2023-06-19T02:50:13;114.55;;;26.27;;
17038;SDS011;8636;55.750;13.202;2023-06-19T02:52:41;130.38;;;25.35;;
17038;SDS011;8636;55.750;13.202;2023-06-19T02:55:10;155.05;;;27.25;;
17038;SDS011;8636;55.750;13.202;2023-06-19T02:57:45;135.20;;;27.08;;
17038;SDS011;8636;55.750;13.202;2023-06-19T03:00:14;148.23;;;26.42;;
17038;SDS011;8636;55.750;13.202;2023-06-19T03:02:42;99.27;;;22.57;;
17038;SDS011;8636;55.750;13.202;2023-06-19T03:05:17;67.50;;;22.80;;
17038;SDS011;8636;55.750;13.202;2023-06-19T03:07:46;84.05;;;22.33;;
17038;SDS011;8636;55.750;13.202;2023-06-19T03:10:15;64.63;;;19.50;;
17038;SDS011;8636;55.750;13.202;2023-06-19T03:12:49;58.33;;;17.80;;
17038;SDS011;8636;55.750;13.202;2023-06-19T03:15:17;45.63;;;14.38;;
17038;SDS011;8636;55.750;13.202;2023-06-19T03:17:45;37.35;;;11.43;;
17038;SDS011;8636;55.750;13.202;2023-06-19T03:20:20;23.58;;;8.95;;
17038;SDS011;8636;55.750;13.202;2023-06-19T03:22:49;26.25;;;9.02;;
17038;SDS011;8636;55.750;13.202;2023-06-19T03:25:19;25.33;;;8.27;;
17038;SDS011;8636;55.750;13.202;2023-06-19T03:27:53;26.95;;;7.60;;
17038;SDS011;8636;55.750;13.202;2023-06-19T03:30:21;9.73;;;5.78;;
17038;SDS011;8636;55.750;13.202;2023-06-19T03:32:49;6.93;;;5.88;;
17038;SDS011;8636;55.750;13.202;2023-06-19T03:35:24;7.25;;;5.82;;
17038;SDS011;8636;55.750;13.202;2023-06-19T03:37:52;6.65;;;5.53;;
17038;SDS011;8636;55.750;13.202;2023-06-19T03:40:21;6.65;;;5.95;;
17038;SDS011;8636;55.750;13.202;2023-06-19T03:42:59;8.35;;;7.47;;
17038;SDS011;8636;55.750;13.202;2023-06-19T03:45:26;8.60;;;7.70;;
17038;SDS011;8636;55.750;13.202;2023-06-19T03:47:54;10.95;;;8.45;;
17038;SDS011;8636;55.750;13.202;2023-06-19T03:50:29;10.63;;;9.00;;
17038;SDS011;8636;55.750;13.202;2023-06-19T03:52:58;9.02;;;8.13;;
17038;SDS011;8636;55.750;13.202;2023-06-19T03:55:27;9.32;;;8.43;;
17038;SDS011;8636;55.750;13.202;2023-06-19T03:58:01;9.00;;;8.13;;
17038;SDS011;8636;55.750;13.202;2023-06-19T04:00:29;9.15;;;8.25;;
17038;SDS011;8636;55.750;13.202;2023-06-19T04:02:57;8.70;;;7.90;;
17038;SDS011;8636;55.750;13.202;2023-06-19T04:05:31;8.35;;;7.63;;
17038;SDS011;8636;55.750;13.202;2023-06-19T04:07:59;8.63;;;7.72;;
17038;SDS011;8636;55.750;13.202;2023-06-19T04:10:28;8.35;;;7.53;;
17038;SDS011;8636;55.750;13.202;2023-06-19T04:13:03;8.00;;;7.30;;
17038;SDS011;8636;55.750;13.202;2023-06-19T04:15:33;8.48;;;7.55;;
17038;SDS011;8636;55.750;13.202;2023-06-19T04:18:02;8.90;;;8.00;;
17038;SDS011;8636;55.750;13.202;2023-06-19T04:20:36;8.55;;;7.75;;
17038;SDS011;8636;55.750;13.202;2023-06-19T04:23:04;8.10;;;7.30;;
17038;SDS011;8636;55.750;13.202;2023-06-19T04:25:33;11.27;;;9.23;;
17038;SDS011;8636;55.750;13.202;2023-06-19T04:28:08;15.10;;;10.82;;
17038;SDS011;8636;55.750;13.202;2023-06-19T04:30:36;11.48;;;10.38;;
17038;SDS011;8636;55.750;13.202;2023-06-19T04:33:05;11.60;;;10.48;;
17038;SDS011;8636;55.750;13.202;2023-06-19T04:35:41;13.57;;;12.25;;
17038;SDS011;8636;55.750;13.202;2023-06-19T04:38:09;13.20;;;11.90;;
17038;SDS011;8636;55.750;13.202;2023-06-19T04:40:42;15.52;;;13.25;;
17038;SDS011;8636;55.750;13.202;2023-06-19T04:43:16;13.73;;;12.32;;
17038;SDS011;8636;55.750;13.202;2023-06-19T04:45:44;13.68;;;12.05;;
17038;SDS011;8636;55.750;13.202;2023-06-19T04:48:13;13.65;;;12.18;;
17038;SDS011;8636;55.750;13.202;2023-06-19T04:50:47;13.98;;;12.60;;
17038;SDS011;8636;55.750;13.202;2023-06-19T04:53:15;13.60;;;12.27;;
17038;SDS011;8636;55.750;13.202;2023-06-19T04:55:44;14.25;;;12.80;;
17038;SDS011;8636;55.750;13.202;2023-06-19T04:58:19;13.50;;;12.20;;
17038;SDS011;8636;55.750;13.202;2023-06-19T05:00:53;13.90;;;12.50;;
17038;SDS011;8636;55.750;13.202;2023-06-19T05:03:27;14.65;;;13.15;;
17038;SDS011;8636;55.750;13.202;2023-06-19T05:05:55;16.67;;;14.82;;
17038;SDS011;8636;55.750;13.202;2023-06-19T05:08:23;15.40;;;13.80;;
17038;SDS011;8636;55.750;13.202;2023-06-19T05:10:59;15.27;;;13.73;;
17038;SDS011;8636;55.750;13.202;2023-06-19T05:13:26;15.50;;;13.90;;
17038;SDS011;8636;55.750;13.202;2023-06-19T05:15:55;16.52;;;14.85;;
17038;SDS011;8636;55.750;13.202;2023-06-19T05:18:29;16.20;;;14.60;;
17038;SDS011;8636;55.750;13.202;2023-06-19T05:20:57;15.88;;;14.25;;
17038;SDS011;8636;55.750;13.202;2023-06-19T05:23:25;16.73;;;14.77;;
17038;SDS011;8636;55.750;13.202;2023-06-19T05:26:01;16.55;;;14.82;;
17038;SDS011;8636;55.750;13.202;2023-06-19T05:28:29;14.88;;;13.48;;
17038;SDS011;8636;55.750;13.202;2023-06-19T05:30:57;16.58;;;14.98;;
17038;SDS011;8636;55.750;13.202;2023-06-19T05:33:39;16.48;;;14.88;;
17038;SDS011;8636;55.750;13.202;2023-06-19T05:36:07;16.30;;;14.60;;
17038;SDS011;8636;55.750;13.202;2023-06-19T05:38:42;17.17;;;15.38;;
17038;SDS011;8636;55.750;13.202;2023-06-19T05:41:13;17.63;;;15.88;;
17038;SDS011;8636;55.750;13.202;2023-06-19T05:43:42;16.52;;;14.93;;
17038;SDS011;8636;55.750;13.202;2023-06-19T05:46:17;16.60;;;15.00;;
17038;SDS011;8636;55.750;13.202;2023-06-19T05:48:45;16.73;;;15.18;;
17038;SDS011;8636;55.750;13.202;2023-06-19T05:51:14;16.60;;;14.93;;
17038;SDS011;8636;55.750;13.202;2023-06-19T05:53:48;15.85;;;14.23;;
17038;SDS011;8636;55.750;13.202;2023-06-19T05:56:18;15.93;;;13.55;;
17038;SDS011;8636;55.750;13.202;2023-06-19T05:58:46;14.13;;;12.82;;
17038;SDS011;8636;55.750;13.202;2023-06-19T06:01:20;14.98;;;13.25;;
17038;SDS011;8636;55.750;13.202;2023-06-19T06:03:51;13.93;;;12.60;;
17038;SDS011;8636;55.750;13.202;2023-06-19T06:06:20;14.15;;;12.68;;
17038;SDS011;8636;55.750;13.202;2023-06-19T06:08:54;14.50;;;12.80;;
17038;SDS011;8636;55.750;13.202;2023-06-19T06:11:23;14.00;;;12.70;;
17038;SDS011;8636;55.750;13.202;2023-06-19T06:13:51;13.38;;;12.07;;
17038;SDS011;8636;55.750;13.202;2023-06-19T06:16:26;14.52;;;13.13;;
17038;SDS011;8636;55.750;13.202;2023-06-19T06:18:54;12.70;;;11.57;;
17038;SDS011;8636;55.750;13.202;2023-06-19T06:21:22;14.82;;;12.02;;
17038;SDS011;8636;55.750;13.202;2023-06-19T06:23:56;13.43;;;11.77;;
17038;SDS011;8636;55.750;13.202;2023-06-19T06:26:26;14.90;;;13.30;;
17038;SDS011;8636;55.750;13.202;2023-06-19T06:28:54;12.88;;;11.57;;
17038;SDS011;8636;55.750;13.202;2023-06-19T06:31:29;14.25;;;12.63;;
17038;SDS011;8636;55.750;13.202;2023-06-19T06:34:10;13.07;;;11.70;;
17038;SDS011;8636;55.750;13.202;2023-06-19T06:36:45;12.65;;;11.50;;
17038;SDS011;8636;55.750;13.202;2023-06-19T06:39:30;12.95;;;11.65;;
17038;SDS011;8636;55.750;13.202;2023-06-19T06:42:07;14.35;;;11.85;;
17038;SDS011;8636;55.750;13.202;2023-06-19T06:44:35;12.73;;;11.52;;
17038;SDS011;8636;55.750;13.202;2023-06-19T06:47:03;13.05;;;11.52;;
17038;SDS011;8636;55.750;13.202;2023-06-19T06:49:37;13.73;;;11.65;;
17038;SDS011;8636;55.750;13.202;2023-06-19T06:52:05;11.52;;;10.45;;
17038;SDS011;8636;55.750;13.202;2023-06-19T06:54:34;13.70;;;10.82;;
17038;SDS011;8636;55.750;13.202;2023-06-19T06:57:10;11.20;;;10.00;;
17038;SDS011;8636;55.750;13.202;2023-06-19T06:59:38;12.48;;;11.27;;
17038;SDS011;8636;55.750;13.202;2023-06-19T07:02:06;14.15;;;10.80;;
17038;SDS011;8636;55.750;13.202;2023-06-19T07:04:49;12.57;;;10.95;;
17038;SDS011;8636;55.750;13.202;2023-06-19T07:07:18;11.52;;;10.32;;
17038;SDS011;8636;55.750;13.202;2023-06-19T07:09:53;11.50;;;10.32;;
17038;SDS011;8636;55.750;13.202;2023-06-19T07:12:23;12.00;;;10.77;;
17038;SDS011;8636;55.750;13.202;2023-06-19T07:14:52;11.70;;;10.63;;
17038;SDS011;8636;55.750;13.202;2023-06-19T07:17:27;11.60;;;10.45;;
17038;SDS011;8636;55.750;13.202;2023-06-19T07:19:55;11.43;;;10.32;;
17038;SDS011;8636;55.750;13.202;2023-06-19T07:22:23;10.50;;;9.40;;
17038;SDS011;8636;55.750;13.202;2023-06-19T07:24:57;10.23;;;9.23;;
17038;SDS011;8636;55.750;13.202;2023-06-19T07:27:26;9.95;;;8.93;;
17038;SDS011;8636;55.750;13.202;2023-06-19T07:29:55;10.30;;;9.20;;
17038;SDS011;8636;55.750;13.202;2023-06-19T07:32:29;10.80;;;9.48;;
17038;SDS011;8636;55.750;13.202;2023-06-19T07:35:04;9.90;;;8.90;;
17038;SDS011;8636;55.750;13.202;2023-06-19T07:37:39;9.10;;;8.30;;
17038;SDS011;8636;55.750;13.202;2023-06-19T07:40:07;9.80;;;8.90;;
17038;SDS011;8636;55.750;13.202;2023-06-19T07:42:38;7.78;;;7.07;;
17038;SDS011;8636;55.750;13.202;2023-06-19T07:45:12;9.32;;;7.63;;
17038;SDS011;8636;55.750;13.202;2023-06-19T07:47:40;8.55;;;7.75;;
17038;SDS011;8636;55.750;13.202;2023-06-19T07:50:09;8.45;;;7.70;;
17038;SDS011;8636;55.750;13.202;2023-06-19T07:52:43;8.43;;;7.63;;
17038;SDS011;8636;55.750;13.202;2023-06-19T07:55:11;8.40;;;7.60;;
17038;SDS011;8636;55.750;13.202;2023-06-19T07:57:40;8.50;;;7.70;;
17038;SDS011;8636;55.750;13.202;2023-06-19T08:00:15;7.45;;;6.80;;
17038;SDS011;8636;55.750;13.202;2023-06-19T08:02:44;7.50;;;6.90;;
17038;SDS011;8636;55.750;13.202;2023-06-19T08:05:12;7.90;;;7.20;;
17038;SDS011;8636;55.750;13.202;2023-06-19T08:07:46;6.85;;;6.15;;
17038;SDS011;8636;55.750;13.202;2023-06-19T08:10:14;7.28;;;6.60;;
17038;SDS011;8636;55.750;13.202;2023-06-19T08:12:44;7.10;;;6.35;;
17038;SDS011;8636;55.750;13.202;2023-06-19T08:15:19;6.47;;;5.88;;
17038;SDS011;8636;55.750;13.202;2023-06-19T08:17:47;6.18;;;5.68;;
17038;SDS011;8636;55.750;13.202;2023-06-19T08:20:15;6.40;;;5.90;;
17038;SDS011;8636;55.750;13.202;2023-06-19T08:22:51;6.10;;;5.50;;
17038;SDS011;8636;55.750;13.202;2023-06-19T08:25:19;6.32;;;5.82;;
17038;SDS011;8636;55.750;13.202;2023-06-19T08:27:48;6.22;;;5.65;;
17038;SDS011;8636;55.750;13.202;2023-06-19T08:30:22;6.20;;;5.60;;
17038;SDS011;8636;55.750;13.202;2023-06-19T08:32:58;5.55;;;5.10;;
17038;SDS011;8636;55.750;13.202;2023-06-19T08:35:39;5.82;;;5.32;;
17038;SDS011;8636;55.750;13.202;2023-06-19T08:38:07;5.07;;;4.68;;
17038;SDS011;8636;55.750;13.202;2023-06-19T08:40:35;5.15;;;4.75;;
17038;SDS011;8636;55.750;13.202;2023-06-19T08:43:12;5.03;;;4.63;;
17038;SDS011;8636;55.750;13.202;2023-06-19T08:45:39;5.10;;;4.70;;
17038;SDS011;8636;55.750;13.202;2023-06-19T08:48:07;5.22;;;4.82;;
17038;SDS011;8636;55.750;13.202;2023-06-19T08:50:47;5.97;;;5.47;;
17038;SDS011;8636;55.750;13.202;2023-06-19T08:53:15;5.72;;;5.22;;
17038;SDS011;8636;55.750;13.202;2023-06-19T08:55:43;6.35;;;5.68;;
17038;SDS011;8636;55.750;13.202;2023-06-19T08:58:23;6.05;;;5.43;;
17038;SDS011;8636;55.750;13.202;2023-06-19T09:00:51;5.55;;;4.95;;
17038;SDS011;8636;55.750;13.202;2023-06-19T09:03:25;6.00;;;5.50;;
17038;SDS011;8636;55.750;13.202;2023-06-19T09:05:53;5.78;;;5.20;;
17038;SDS011;8636;55.750;13.202;2023-06-19T09:08:22;5.82;;;5.32;;
17038;SDS011;8636;55.750;13.202;2023-06-19T09:10:57;6.10;;;5.60;;
17038;SDS011;8636;55.750;13.202;2023-06-19T09:13:27;6.40;;;5.93;;
17038;SDS011;8636;55.750;13.202;2023-06-19T09:15:59;5.53;;;5.03;;
17038;SDS011;8636;55.750;13.202;2023-06-19T09:18:42;5.80;;;5.30;;
17038;SDS011;8636;55.750;13.202;2023-06-19T09:21:15;6.72;;;6.20;;
17038;SDS011;8636;55.750;13.202;2023-06-19T09:23:50;6.82;;;6.22;;
17038;SDS011;8636;55.750;13.202;2023-06-19T09:26:18;7.00;;;6.40;;
17038;SDS011;8636;55.750;13.202;2023-06-19T09:28:48;6.47;;;5.85;;
17038;SDS011;8636;55.750;13.202;2023-06-19T09:31:31;6.70;;;6.10;;
17038;SDS011;8636;55.750;13.202;2023-06-19T09:34:19;6.75;;;6.05;;
17038;SDS011;8636;55.750;13.202;2023-06-19T09:36:53;6.30;;;5.80;;
17038;SDS011;8636;55.750;13.202;2023-06-19T09:39:21;6.15;;;5.63;;
17038;SDS011;8636;55.750;13.202;2023-06-19T09:42:00;5.60;;;5.10;;
17038;SDS011;8636;55.750;13.202;2023-06-19T09:44:31;5.30;;;4.78;;
17038;SDS011;8636;55.750;13.202;2023-06-19T09:47:14;5.65;;;5.25;;
17038;SDS011;8636;55.750;13.202;2023-06-19T09:49:48;6.18;;;5.57;;
17038;SDS011;8636;55.750;13.202;2023-06-19T09:52:24;7.53;;;6.78;;
17038;SDS011;8636;55.750;13.202;2023-06-19T09:54:54;6.55;;;6.05;;
17038;SDS011;8636;55.750;13.202;2023-06-19T09:57:23;7.10;;;6.35;;
17038;SDS011;8636;55.750;13.202;2023-06-19T09:59:59;6.80;;;6.18;;
17038;SDS011;8636;55.750;13.202;2023-06-19T10:02:35;7.95;;;7.25;;
17038;SDS011;8636;55.750;13.202;2023-06-19T10:05:10;7.00;;;6.40;;
17038;SDS011;8636;55.750;13.202;2023-06-19T10:07:42;6.30;;;5.75;;
17038;SDS011;8636;55.750;13.202;2023-06-19T10:10:22;7.30;;;5.18;;
17038;SDS011;8636;55.750;13.202;2023-06-19T10:12:53;6.93;;;6.22;;
17038;SDS011;8636;55.750;13.202;2023-06-19T10:15:31;7.25;;;6.30;;
17038;SDS011;8636;55.750;13.202;2023-06-19T10:18:01;6.43;;;5.70;;
17038;SDS011;8636;55.750;13.202;2023-06-19T10:20:37;6.22;;;5.63;;
17038;SDS011;8636;55.750;13.202;2023-06-19T10:23:13;6.90;;;6.30;;
17038;SDS011;8636;55.750;13.202;2023-06-19T10:25:55;7.00;;;5.68;;
17038;SDS011;8636;55.750;13.202;2023-06-19T10:28:24;6.30;;;5.78;;
17038;SDS011;8636;55.750;13.202;2023-06-19T10:31:02;5.90;;;5.28;;
17038;SDS011;8636;55.750;13.202;2023-06-19T10:33:46;6.00;;;5.50;;
17038;SDS011;8636;55.750;13.202;2023-06-19T10:36:27;6.65;;;6.05;;
17038;SDS011;8636;55.750;13.202;2023-06-19T10:38:56;6.15;;;5.60;;
17038;SDS011;8636;55.750;13.202;2023-06-19T10:41:24;7.90;;;7.28;;
17038;SDS011;8636;55.750;13.202;2023-06-19T10:44:00;8.35;;;7.65;;
17038;SDS011;8636;55.750;13.202;2023-06-19T10:46:31;8.70;;;7.80;;
17038;SDS011;8636;55.750;13.202;2023-06-19T10:49:10;10.18;;;7.22;;
17038;SDS011;8636;55.750;13.202;2023-06-19T10:51:40;8.00;;;7.30;;
17038;SDS011;8636;55.750;13.202;2023-06-19T10:54:16;7.53;;;6.60;;
17038;SDS011;8636;55.750;13.202;2023-06-19T10:56:44;6.80;;;6.20;;
17038;SDS011;8636;55.750;13.202;2023-06-19T10:59:14;7.05;;;6.55;;
17038;SDS011;8636;55.750;13.202;2023-06-19T11:01:51;7.40;;;6.80;;
17038;SDS011;8636;55.750;13.202;2023-06-19T11:04:20;6.47;;;5.88;;
17038;SDS011;8636;55.750;13.202;2023-06-19T11:06:56;6.25;;;5.60;;
17038;SDS011;8636;55.750;13.202;2023-06-19T11:09:31;8.27;;;7.47;;
17038;SDS011;8636;55.750;13.202;2023-06-19T11:12:11;7.78;;;7.05;;
17038;SDS011;8636;55.750;13.202;2023-06-19T11:14:39;7.80;;;7.10;;
17038;SDS011;8636;55.750;13.202;2023-06-19T11:17:17;8.68;;;7.90;;
17038;SDS011;8636;55.750;13.202;2023-06-19T11:19:47;7.72;;;7.03;;
17038;SDS011;8636;55.750;13.202;2023-06-19T11:22:22;6.63;;;6.03;;
17038;SDS011;8636;55.750;13.202;2023-06-19T11:25:02;7.10;;;6.50;;
17038;SDS011;8636;55.750;13.202;2023-06-19T11:27:39;6.90;;;6.30;;
17038;SDS011;8636;55.750;13.202;2023-06-19T11:30:07;7.28;;;6.47;;
17038;SDS011;8636;55.750;13.202;2023-06-19T11:32:38;7.35;;;6.72;;
17038;SDS011;8636;55.750;13.202;2023-06-19T11:35:24;7.25;;;6.45;;
17038;SDS011;8636;55.750;13.202;2023-06-19T11:37:58;6.35;;;5.85;;
17038;SDS011;8636;55.750;13.202;2023-06-19T11:40:38;6.35;;;5.85;;
17038;SDS011;8636;55.750;13.202;2023-06-19T11:43:07;6.22;;;5.72;;
17038;SDS011;8636;55.750;13.202;2023-06-19T11:45:45;6.15;;;5.65;;
17038;SDS011;8636;55.750;13.202;2023-06-19T11:48:22;6.55;;;5.95;;
17038;SDS011;8636;55.750;13.202;2023-06-19T11:50:57;6.72;;;6.13;;
17038;SDS011;8636;55.750;13.202;2023-06-19T11:53:26;6.57;;;6.07;;
17038;SDS011;8636;55.750;13.202;2023-06-19T11:55:53;6.18;;;5.72;;
17038;SDS011;8636;55.750;13.202;2023-06-19T11:58:29;6.95;;;5.35;;
17038;SDS011;8636;55.750;13.202;2023-06-19T12:00:57;6.50;;;5.35;;
17038;SDS011;8636;55.750;13.202;2023-06-19T12:03:40;6.28;;;5.78;;
17038;SDS011;8636;55.750;13.202;2023-06-19T12:06:08;5.63;;;5.18;;
17038;SDS011;8636;55.750;13.202;2023-06-19T12:08:36;5.50;;;5.10;;
17038;SDS011;8636;55.750;13.202;2023-06-19T12:11:21;6.30;;;5.80;;
17038;SDS011;8636;55.750;13.202;2023-06-19T12:13:51;5.90;;;5.40;;
17038;SDS011;8636;55.750;13.202;2023-06-19T12:16:26;6.57;;;5.97;;
17038;SDS011;8636;55.750;13.202;2023-06-19T12:18:56;6.30;;;5.75;;
17038;SDS011;8636;55.750;13.202;2023-06-19T12:21:24;5.93;;;5.43;;
17038;SDS011;8636;55.750;13.202;2023-06-19T12:24:05;5.82;;;5.25;;
17038;SDS011;8636;55.750;13.202;2023-06-19T12:26:34;5.43;;;4.93;;
17038;SDS011;8636;55.750;13.202;2023-06-19T12:29:09;5.40;;;4.90;;
17038;SDS011;8636;55.750;13.202;2023-06-19T12:31:38;6.07;;;5.57;;
17038;SDS011;8636;55.750;13.202;2023-06-19T12:34:07;6.65;;;6.03;;
17038;SDS011;8636;55.750;13.202;2023-06-19T12:36:56;5.85;;;5.35;;
17038;SDS011;8636;55.750;13.202;2023-06-19T12:39:24;5.82;;;5.15;;
17038;SDS011;8636;55.750;13.202;2023-06-19T12:42:00;5.47;;;4.97;;
17038;SDS011;8636;55.750;13.202;2023-06-19T12:44:28;5.25;;;4.85;;
17038;SDS011;8636;55.750;13.202;2023-06-19T12:46:58;5.63;;;5.13;;
17038;SDS011;8636;55.750;13.202;2023-06-19T12:49:35;5.68;;;5.18;;
17038;SDS011;8636;55.750;13.202;2023-06-19T12:52:03;5.43;;;4.93;;
17038;SDS011;8636;55.750;13.202;2023-06-19T12:54:31;6.45;;;5.55;;
17038;SDS011;8636;55.750;13.202;2023-06-19T12:57:07;6.13;;;5.60;;
17038;SDS011;8636;55.750;13.202;2023-06-19T12:59:35;6.93;;;5.78;;
17038;SDS011;8636;55.750;13.202;2023-06-19T13:02:03;6.32;;;5.70;;
17038;SDS011;8636;55.750;13.202;2023-06-19T13:04:42;5.85;;;5.35;;
17038;SDS011;8636;55.750;13.202;2023-06-19T13:07:10;5.63;;;5.13;;
17038;SDS011;8636;55.750;13.202;2023-06-19T13:09:45;5.28;;;4.85;;
17038;SDS011;8636;55.750;13.202;2023-06-19T13:12:13;7.03;;;5.63;;
17038;SDS011;8636;55.750;13.202;2023-06-19T13:14:41;6.68;;;5.57;;
17038;SDS011;8636;55.750;13.202;2023-06-19T13:17:15;6.05;;;5.45;;
17038;SDS011;8636;55.750;13.202;2023-06-19T13:19:45;5.75;;;5.25;;
17038;SDS011;8636;55.750;13.202;2023-06-19T13:22:13;5.90;;;5.40;;
17038;SDS011;8636;55.750;13.202;2023-06-19T13:24:50;5.75;;;5.25;;
17038;SDS011;8636;55.750;13.202;2023-06-19T13:27:18;5.35;;;4.68;;
17038;SDS011;8636;55.750;13.202;2023-06-19T13:29:46;5.63;;;5.13;;
17038;SDS011;8636;55.750;13.202;2023-06-19T13:32:27;4.93;;;4.45;;
17038;SDS011;8636;55.750;13.202;2023-06-19T13:35:10;6.68;;;5.97;;
17038;SDS011;8636;55.750;13.202;2023-06-19T13:37:45;5.30;;;4.90;;
17038;SDS011;8636;55.750;13.202;2023-06-19T13:40:12;5.60;;;5.10;;
17038;SDS011;8636;55.750;13.202;2023-06-19T13:42:41;7.07;;;4.82;;
17038;SDS011;8636;55.750;13.202;2023-06-19T13:45:15;5.18;;;4.78;;
17038;SDS011;8636;55.750;13.202;2023-06-19T13:47:43;5.97;;;5.47;;
17038;SDS011;8636;55.750;13.202;2023-06-19T13:50:15;5.60;;;5.10;;
17038;SDS011;8636;55.750;13.202;2023-06-19T13:52:51;5.70;;;5.20;;
17038;SDS011;8636;55.750;13.202;2023-06-19T13:55:20;5.43;;;4.93;;
17038;SDS011;8636;55.750;13.202;2023-06-19T13:57:49;8.00;;;5.03;;
17038;SDS011;8636;55.750;13.202;2023-06-19T14:00:24;5.72;;;5.10;;
17038;SDS011;8636;55.750;13.202;2023-06-19T14:02:52;5.38;;;4.88;;
17038;SDS011;8636;55.750;13.202;2023-06-19T14:05:22;5.00;;;4.60;;
17038;SDS011;8636;55.750;13.202;2023-06-19T14:07:56;6.25;;;5.00;;
17038;SDS011;8636;55.750;13.202;2023-06-19T14:10:24;5.47;;;4.22;;
17038;SDS011;8636;55.750;13.202;2023-06-19T14:12:52;5.63;;;4.55;;
17038;SDS011;8636;55.750;13.202;2023-06-19T14:15:26;5.32;;;4.32;;
17038;SDS011;8636;55.750;13.202;2023-06-19T14:17:54;5.50;;;4.95;;
17038;SDS011;8636;55.750;13.202;2023-06-19T14:20:24;4.35;;;4.00;;
17038;SDS011;8636;55.750;13.202;2023-06-19T14:22:59;5.18;;;4.10;;
17038;SDS011;8636;55.750;13.202;2023-06-19T14:25:27;4.93;;;4.45;;
17038;SDS011;8636;55.750;13.202;2023-06-19T14:27:55;5.15;;;4.32;;
17038;SDS011;8636;55.750;13.202;2023-06-19T14:30:29;5.13;;;4.43;;
17038;SDS011;8636;55.750;13.202;2023-06-19T14:33:04;5.00;;;4.57;;
17038;SDS011;8636;55.750;13.202;2023-06-19T14:35:49;4.57;;;4.18;;
17038;SDS011;8636;55.750;13.202;2023-06-19T14:38:18;4.40;;;4.00;;
17038;SDS011;8636;55.750;13.202;2023-06-19T14:40:46;7.15;;;4.15;;
17038;SDS011;8636;55.750;13.202;2023-06-19T14:43:21;4.63;;;3.85;;
17038;SDS011;8636;55.750;13.202;2023-06-19T14:45:49;5.85;;;4.30;;
17038;SDS011;8636;55.750;13.202;2023-06-19T14:48:17;4.25;;;3.95;;
17038;SDS011;8636;55.750;13.202;2023-06-19T14:50:54;4.25;;;3.85;;
17038;SDS011;8636;55.750;13.202;2023-06-19T14:53:22;9.90;;;4.30;;
17038;SDS011;8636;55.750;13.202;2023-06-19T14:55:50;5.57;;;4.10;;
17038;SDS011;8636;55.750;13.202;2023-06-19T14:58:24;4.10;;;3.70;;
17038;SDS011;8636;55.750;13.202;2023-06-19T15:00:55;5.80;;;4.00;;
17038;SDS011;8636;55.750;13.202;2023-06-19T15:03:24;3.90;;;3.60;;
17038;SDS011;8636;55.750;13.202;2023-06-19T15:06:01;4.95;;;4.07;;